sensor_id;sensor_type;location;lat;lon;timestamp;pressure;altitude;pressure_sealevel;temperature;humidity
49341;BME280;35209;51.050;13.678;2023-03-25T00:02:55;98896.66;;;10.62;75.18
49341;BME280;35209;51.050;13.678;2023-03-25T00:07:57;98897.34;;;10.66;75.35
49341;BME280;35209;51.050;13.678;2023-03-25T00:12:59;98898.53;;;10.60;75.20
49341;BME280;35209;51.050;13.678;2023-03-25T00:18:05;98894.25;;;10.57;75.43
49341;BME280;35209;51.050;13.678;2023-03-25T00:23:07;98878.91;;;10.50;75.59
49341;BME280;35209;51.050;13.678;2023-03-25T00:28:08;98867.78;;;10.45;75.57
49341;BME280;35209;51.050;13.678;2023-03-25T00:33:10;98858.38;;;10.39;75.72
49341;BME280;35209;51.050;13.678;2023-03-25T00:38:13;98858.03;;;10.47;75.04
49341;BME280;35209;51.050;13.678;2023-03-25T00:43:15;98871.53;;;10.39;75.33
49341;BME280;35209;51.050;13.678;2023-03-25T00:48:17;98868.59;;;10.28;75.96
49341;BME280;35209;51.050;13.678;2023-03-25T00:53:19;98862.66;;;10.42;75.18
49341;BME280;35209;51.050;13.678;2023-03-25T00:58:21;98859.69;;;10.30;75.73
49341;BME280;35209;51.050;13.678;2023-03-25T01:03:25;98867.53;;;10.32;75.46
49341;BME280;35209;51.050;13.678;2023-03-25T01:08:29;98864.91;;;10.32;75.70
49341;BME280;35209;51.050;13.678;2023-03-25T01:13:33;98858.78;;;10.31;75.48
49341;BME280;35209;51.050;13.678;2023-03-25T01:18:34;98851.75;;;10.32;75.01
49341;BME280;35209;51.050;13.678;2023-03-25T01:23:38;98840.56;;;10.28;75.43
49341;BME280;35209;51.050;13.678;2023-03-25T01:28:41;98840.69;;;10.25;75.33
49341;BME280;35209;51.050;13.678;2023-03-25T01:33:43;98839.63;;;10.29;75.27
49341;BME280;35209;51.050;13.678;2023-03-25T01:38:45;98836.66;;;10.18;76.26
49341;BME280;35209;51.050;13.678;2023-03-25T01:49:07;98815.00;;;10.32;75.58
49341;BME280;35209;51.050;13.678;2023-03-25T01:54:11;98796.75;;;10.29;75.92
49341;BME280;35209;51.050;13.678;2023-03-25T01:59:22;98789.16;;;10.23;77.04
49341;BME280;35209;51.050;13.678;2023-03-25T02:04:42;98786.81;;;10.17;77.48
49341;BME280;35209;51.050;13.678;2023-03-25T02:09:45;98802.47;;;10.37;76.10
49341;BME280;35209;51.050;13.678;2023-03-25T02:14:47;98792.81;;;10.38;76.08
49341;BME280;35209;51.050;13.678;2023-03-25T02:20:04;98791.13;;;10.37;75.81
49341;BME280;35209;51.050;13.678;2023-03-25T02:41:27;98770.16;;;10.35;74.83
49341;BME280;35209;51.050;13.678;2023-03-25T02:46:32;98764.84;;;10.37;75.08
49341;BME280;35209;51.050;13.678;2023-03-25T02:51:43;98767.69;;;10.15;77.51
49341;BME280;35209;51.050;13.678;2023-03-25T02:56:47;98764.25;;;10.13;77.30
49341;BME280;35209;51.050;13.678;2023-03-25T03:01:55;98762.66;;;10.10;77.43
49341;BME280;35209;51.050;13.678;2023-03-25T03:06:59;98759.56;;;10.02;77.94
49341;BME280;35209;51.050;13.678;2023-03-25T03:23:23;98773.00;;;10.13;76.95
49341;BME280;35209;51.050;13.678;2023-03-25T03:28:31;98772.31;;;10.09;76.95
49341;BME280;35209;51.050;13.678;2023-03-25T03:39:09;98774.53;;;10.17;75.41
49341;BME280;35209;51.050;13.678;2023-03-25T03:44:19;98767.06;;;10.09;76.44
49341;BME280;35209;51.050;13.678;2023-03-25T03:49:33;98779.41;;;10.07;75.28
49341;BME280;35209;51.050;13.678;2023-03-25T03:54:49;98775.78;;;10.10;74.66
49341;BME280;35209;51.050;13.678;2023-03-25T04:00:12;98783.09;;;10.03;75.02
49341;BME280;35209;51.050;13.678;2023-03-25T04:05:18;98788.34;;;10.03;74.36
49341;BME280;35209;51.050;13.678;2023-03-25T04:10:29;98791.78;;;10.05;73.87
49341;BME280;35209;51.050;13.678;2023-03-25T04:15:36;98785.34;;;10.11;73.27
49341;BME280;35209;51.050;13.678;2023-03-25T04:20:38;98786.97;;;10.14;72.98
49341;BME280;35209;51.050;13.678;2023-03-25T04:25:45;98782.03;;;10.07;73.36
49341;BME280;35209;51.050;13.678;2023-03-25T04:30:54;98795.25;;;10.23;73.42
49341;BME280;35209;51.050;13.678;2023-03-25T04:35:57;98795.53;;;10.00;73.71
49341;BME280;35209;51.050;13.678;2023-03-25T04:41:02;98794.16;;;10.10;73.81
49341;BME280;35209;51.050;13.678;2023-03-25T04:46:11;98795.53;;;10.17;73.03
49341;BME280;35209;51.050;13.678;2023-03-25T04:51:14;98792.06;;;9.99;74.75
49341;BME280;35209;51.050;13.678;2023-03-25T04:56:17;98794.31;;;10.07;73.46
49341;BME280;35209;51.050;13.678;2023-03-25T05:01:22;98799.66;;;10.05;73.28
49341;BME280;35209;51.050;13.678;2023-03-25T05:06:25;98794.06;;;10.11;71.95
49341;BME280;35209;51.050;13.678;2023-03-25T05:11:27;98804.72;;;10.08;71.97
49341;BME280;35209;51.050;13.678;2023-03-25T05:16:29;98808.28;;;10.07;71.07
49341;BME280;35209;51.050;13.678;2023-03-25T05:21:35;98807.34;;;10.08;70.99
49341;BME280;35209;51.050;13.678;2023-03-25T05:26:40;98817.78;;;10.10;70.58
49341;BME280;35209;51.050;13.678;2023-03-25T05:31:43;98814.31;;;10.09;70.96
49341;BME280;35209;51.050;13.678;2023-03-25T05:36:46;98809.13;;;10.08;69.55
49341;BME280;35209;51.050;13.678;2023-03-25T05:41:48;98805.97;;;10.01;68.14
49341;BME280;35209;51.050;13.678;2023-03-25T05:46:50;98818.88;;;9.87;68.38
49341;BME280;35209;51.050;13.678;2023-03-25T05:51:52;98823.06;;;9.91;66.49
49341;BME280;35209;51.050;13.678;2023-03-25T05:56:56;98816.22;;;9.89;64.06
49341;BME280;35209;51.050;13.678;2023-03-25T06:01:58;98827.69;;;9.86;64.31
49341;BME280;35209;51.050;13.678;2023-03-25T06:06:59;98839.84;;;9.89;64.90
49341;BME280;35209;51.050;13.678;2023-03-25T06:12:02;98846.47;;;9.78;65.39
49341;BME280;35209;51.050;13.678;2023-03-25T06:17:04;98856.69;;;9.66;67.13
49341;BME280;35209;51.050;13.678;2023-03-25T06:22:07;98861.84;;;9.48;68.63
49341;BME280;35209;51.050;13.678;2023-03-25T06:27:15;98869.56;;;9.32;70.32
49341;BME280;35209;51.050;13.678;2023-03-25T06:32:20;98882.03;;;9.46;70.87
49341;BME280;35209;51.050;13.678;2023-03-25T06:37:22;98878.78;;;9.98;68.53
49341;BME280;35209;51.050;13.678;2023-03-25T06:42:27;98866.03;;;10.07;68.03
49341;BME280;35209;51.050;13.678;2023-03-25T06:48:01;98860.13;;;10.21;67.22
49341;BME280;35209;51.050;13.678;2023-03-25T06:53:03;98871.69;;;10.36;65.30
49341;BME280;35209;51.050;13.678;2023-03-25T06:58:05;98884.66;;;10.39;65.25
49341;BME280;35209;51.050;13.678;2023-03-25T07:03:08;98880.25;;;10.40;65.28
49341;BME280;35209;51.050;13.678;2023-03-25T07:08:10;98888.91;;;10.24;64.76
49341;BME280;35209;51.050;13.678;2023-03-25T07:13:12;98881.88;;;10.06;64.99
49341;BME280;35209;51.050;13.678;2023-03-25T07:18:14;98882.50;;;10.11;64.40
49341;BME280;35209;51.050;13.678;2023-03-25T07:23:16;98878.69;;;10.18;65.60
49341;BME280;35209;51.050;13.678;2023-03-25T07:28:18;98878.19;;;10.46;63.88
49341;BME280;35209;51.050;13.678;2023-03-25T07:33:20;98876.28;;;10.67;61.90
49341;BME280;35209;51.050;13.678;2023-03-25T07:38:23;98884.44;;;10.61;60.61
49341;BME280;35209;51.050;13.678;2023-03-25T07:43:25;98887.75;;;10.47;61.79
49341;BME280;35209;51.050;13.678;2023-03-25T07:48:36;98882.25;;;10.34;63.05
49341;BME280;35209;51.050;13.678;2023-03-25T07:53:38;98895.72;;;10.09;64.89
49341;BME280;35209;51.050;13.678;2023-03-25T07:58:42;98897.84;;;10.01;67.08
49341;BME280;35209;51.050;13.678;2023-03-25T08:03:46;98904.88;;;10.01;69.76
49341;BME280;35209;51.050;13.678;2023-03-25T08:08:48;98921.75;;;10.14;73.60
49341;BME280;35209;51.050;13.678;2023-03-25T08:13:50;98915.16;;;10.05;75.98
49341;BME280;35209;51.050;13.678;2023-03-25T08:18:53;98916.72;;;9.91;77.13
49341;BME280;35209;51.050;13.678;2023-03-25T08:23:56;98910.50;;;9.93;79.10
49341;BME280;35209;51.050;13.678;2023-03-25T08:29:05;98919.13;;;9.95;79.93
49341;BME280;35209;51.050;13.678;2023-03-25T08:34:11;98933.81;;;9.80;81.92
49341;BME280;35209;51.050;13.678;2023-03-25T08:39:14;98939.22;;;9.77;83.80
49341;BME280;35209;51.050;13.678;2023-03-25T08:44:17;98949.97;;;9.52;84.82
49341;BME280;35209;51.050;13.678;2023-03-25T08:49:19;98964.00;;;9.12;89.03
49341;BME280;35209;51.050;13.678;2023-03-25T08:54:21;98968.47;;;8.88;89.46
49341;BME280;35209;51.050;13.678;2023-03-25T08:59:23;98972.34;;;8.79;92.89
49341;BME280;35209;51.050;13.678;2023-03-25T09:04:25;98973.19;;;8.80;93.97
49341;BME280;35209;51.050;13.678;2023-03-25T09:09:27;98976.06;;;8.74;94.90
49341;BME280;35209;51.050;13.678;2023-03-25T09:14:30;98985.06;;;8.46;94.37
49341;BME280;35209;51.050;13.678;2023-03-25T09:19:34;98994.50;;;8.50;93.08
49341;BME280;35209;51.050;13.678;2023-03-25T09:24:39;99000.41;;;8.32;92.33
49341;BME280;35209;51.050;13.678;2023-03-25T09:29:41;98991.31;;;8.19;95.47
49341;BME280;35209;51.050;13.678;2023-03-25T09:34:43;98977.28;;;8.21;95.14
49341;BME280;35209;51.050;13.678;2023-03-25T09:39:45;98968.31;;;8.27;97.88
49341;BME280;35209;51.050;13.678;2023-03-25T09:49:58;98974.22;;;8.55;100.00
49341;BME280;35209;51.050;13.678;2023-03-25T09:55:15;98971.13;;;8.66;100.00
49341;BME280;35209;51.050;13.678;2023-03-25T10:00:21;98955.63;;;9.43;91.81
49341;BME280;35209;51.050;13.678;2023-03-25T10:10:58;98949.47;;;11.09;91.44
49341;BME280;35209;51.050;13.678;2023-03-25T10:16:05;98942.53;;;11.75;79.72
49341;BME280;35209;51.050;13.678;2023-03-25T10:21:18;98939.94;;;11.91;77.72
49341;BME280;35209;51.050;13.678;2023-03-25T10:26:29;98939.53;;;11.98;78.85
49341;BME280;35209;51.050;13.678;2023-03-25T10:31:37;98927.97;;;12.01;74.50
49341;BME280;35209;51.050;13.678;2023-03-25T10:36:48;98923.13;;;11.93;73.08
49341;BME280;35209;51.050;13.678;2023-03-25T10:42:28;98914.22;;;11.62;70.03
49341;BME280;35209;51.050;13.678;2023-03-25T10:47:36;98914.53;;;11.41;66.33
49341;BME280;35209;51.050;13.678;2023-03-25T10:52:39;98906.38;;;11.78;64.32
49341;BME280;35209;51.050;13.678;2023-03-25T10:57:42;98905.03;;;12.03;63.19
49341;BME280;35209;51.050;13.678;2023-03-25T11:02:48;98896.78;;;11.93;61.69
49341;BME280;35209;51.050;13.678;2023-03-25T11:07:56;98895.81;;;12.72;60.01
49341;BME280;35209;51.050;13.678;2023-03-25T11:13:00;98897.03;;;12.66;59.02
49341;BME280;35209;51.050;13.678;2023-03-25T11:23:29;98886.78;;;13.06;58.65
49341;BME280;35209;51.050;13.678;2023-03-25T11:33:41;98929.63;;;11.20;72.97
49341;BME280;35209;51.050;13.678;2023-03-25T11:38:46;98934.53;;;10.41;84.28
49341;BME280;35209;51.050;13.678;2023-03-25T11:43:51;98899.69;;;9.99;85.49
49341;BME280;35209;51.050;13.678;2023-03-25T11:48:53;98885.53;;;10.57;77.89
49341;BME280;35209;51.050;13.678;2023-03-25T11:54:10;98865.25;;;11.60;75.46
49341;BME280;35209;51.050;13.678;2023-03-25T12:04:23;98849.34;;;12.25;61.86
49341;BME280;35209;51.050;13.678;2023-03-25T12:09:29;98844.13;;;12.83;64.79
49341;BME280;35209;51.050;13.678;2023-03-25T12:15:34;98838.84;;;12.83;61.96
49341;BME280;35209;51.050;13.678;2023-03-25T12:25:54;98826.84;;;12.94;57.09
49341;BME280;35209;51.050;13.678;2023-03-25T13:13:25;98820.41;;;11.30;65.06
49341;BME280;35209;51.050;13.678;2023-03-25T13:19:01;98800.47;;;11.57;63.01
49341;BME280;35209;51.050;13.678;2023-03-25T13:24:26;98781.34;;;11.70;60.13
49341;BME280;35209;51.050;13.678;2023-03-25T13:29:41;98773.59;;;11.98;59.49
49341;BME280;35209;51.050;13.678;2023-03-25T13:40:17;98771.56;;;12.33;59.38
49341;BME280;35209;51.050;13.678;2023-03-25T13:45:24;98762.50;;;12.23;56.84
49341;BME280;35209;51.050;13.678;2023-03-25T13:50:30;98768.75;;;12.51;55.55
49341;BME280;35209;51.050;13.678;2023-03-25T13:55:37;98760.78;;;12.81;56.62
49341;BME280;35209;51.050;13.678;2023-03-25T14:16:42;98753.81;;;12.94;53.48
49341;BME280;35209;51.050;13.678;2023-03-25T14:21:50;98748.72;;;13.05;52.17
49341;BME280;35209;51.050;13.678;2023-03-25T14:26:57;98754.94;;;13.04;50.89
49341;BME280;35209;51.050;13.678;2023-03-25T14:57:40;98853.75;;;7.68;94.43
49341;BME280;35209;51.050;13.678;2023-03-25T15:02:43;98844.78;;;7.75;91.56
49341;BME280;35209;51.050;13.678;2023-03-25T15:08:30;98823.16;;;7.70;88.92
49341;BME280;35209;51.050;13.678;2023-03-25T15:13:42;98790.31;;;7.84;91.54
49341;BME280;35209;51.050;13.678;2023-03-25T15:23:58;98811.94;;;8.52;83.21
49341;BME280;35209;51.050;13.678;2023-03-25T15:40:07;98813.13;;;9.62;71.79
49341;BME280;35209;51.050;13.678;2023-03-25T16:06:23;98830.06;;;9.54;67.57
49341;BME280;35209;51.050;13.678;2023-03-25T16:11:27;98843.19;;;9.54;66.22
49341;BME280;35209;51.050;13.678;2023-03-25T16:16:30;98845.53;;;9.60;65.86
49341;BME280;35209;51.050;13.678;2023-03-25T16:21:36;98842.31;;;9.73;65.15
49341;BME280;35209;51.050;13.678;2023-03-25T16:26:44;98839.88;;;9.70;66.23
49341;BME280;35209;51.050;13.678;2023-03-25T16:32:03;98843.25;;;9.72;65.34
49341;BME280;35209;51.050;13.678;2023-03-25T16:37:06;98837.59;;;9.62;67.32
49341;BME280;35209;51.050;13.678;2023-03-25T16:42:23;98833.72;;;9.52;67.49
49341;BME280;35209;51.050;13.678;2023-03-25T16:47:30;98831.00;;;9.53;67.40
49341;BME280;35209;51.050;13.678;2023-03-25T16:52:33;98828.81;;;9.44;65.18
49341;BME280;35209;51.050;13.678;2023-03-25T16:57:38;98844.13;;;9.53;65.68
49341;BME280;35209;51.050;13.678;2023-03-25T17:02:40;98831.47;;;9.43;66.70
49341;BME280;35209;51.050;13.678;2023-03-25T17:07:42;98834.75;;;9.29;66.56
49341;BME280;35209;51.050;13.678;2023-03-25T17:12:53;98832.53;;;9.20;67.21
49341;BME280;35209;51.050;13.678;2023-03-25T17:17:57;98833.03;;;9.09;67.43
49341;BME280;35209;51.050;13.678;2023-03-25T17:23:05;98831.41;;;9.06;67.24
49341;BME280;35209;51.050;13.678;2023-03-25T17:28:36;98837.47;;;9.07;66.97
49341;BME280;35209;51.050;13.678;2023-03-25T17:33:52;98846.28;;;9.06;67.57
49341;BME280;35209;51.050;13.678;2023-03-25T17:38:55;98847.28;;;9.03;68.16
49341;BME280;35209;51.050;13.678;2023-03-25T17:43:59;98846.81;;;8.94;69.15
49341;BME280;35209;51.050;13.678;2023-03-25T17:49:10;98854.03;;;8.89;69.92
49341;BME280;35209;51.050;13.678;2023-03-25T17:54:14;98849.66;;;8.69;71.58
49341;BME280;35209;51.050;13.678;2023-03-25T17:59:19;98850.75;;;8.63;71.18
49341;BME280;35209;51.050;13.678;2023-03-25T18:04:21;98839.78;;;8.55;71.97
49341;BME280;35209;51.050;13.678;2023-03-25T18:09:23;98845.47;;;8.65;71.06
49341;BME280;35209;51.050;13.678;2023-03-25T18:14:25;98852.69;;;8.59;70.95
49341;BME280;35209;51.050;13.678;2023-03-25T18:19:27;98865.00;;;8.78;70.32
49341;BME280;35209;51.050;13.678;2023-03-25T18:24:32;98865.50;;;8.86;69.40
49341;BME280;35209;51.050;13.678;2023-03-25T18:29:34;98872.66;;;8.82;70.24
49341;BME280;35209;51.050;13.678;2023-03-25T18:34:38;98882.72;;;8.92;69.13
49341;BME280;35209;51.050;13.678;2023-03-25T18:39:40;98887.56;;;9.01;69.63
49341;BME280;35209;51.050;13.678;2023-03-25T18:44:42;98900.69;;;9.01;69.58
49341;BME280;35209;51.050;13.678;2023-03-25T18:49:44;98889.34;;;9.00;70.49
49341;BME280;35209;51.050;13.678;2023-03-25T18:54:45;98881.91;;;9.30;68.83
49341;BME280;35209;51.050;13.678;2023-03-25T18:59:47;98890.50;;;9.14;70.85
49341;BME280;35209;51.050;13.678;2023-03-25T19:04:49;98892.44;;;9.29;70.00
49341;BME280;35209;51.050;13.678;2023-03-25T19:10:02;98881.78;;;9.13;72.22
49341;BME280;35209;51.050;13.678;2023-03-25T19:15:04;98884.41;;;9.13;72.23
49341;BME280;35209;51.050;13.678;2023-03-25T19:20:06;98880.94;;;9.13;71.91
49341;BME280;35209;51.050;13.678;2023-03-25T19:25:10;98876.78;;;9.27;71.70
49341;BME280;35209;51.050;13.678;2023-03-25T19:30:18;98871.09;;;9.18;71.59
49341;BME280;35209;51.050;13.678;2023-03-25T19:35:20;98886.31;;;9.09;72.26
49341;BME280;35209;51.050;13.678;2023-03-25T19:40:25;98892.00;;;9.19;71.42
49341;BME280;35209;51.050;13.678;2023-03-25T19:45:29;98895.13;;;9.27;69.54
49341;BME280;35209;51.050;13.678;2023-03-25T19:50:32;98934.59;;;9.45;69.55
49341;BME280;35209;51.050;13.678;2023-03-25T19:55:34;98906.84;;;9.00;76.14
49341;BME280;35209;51.050;13.678;2023-03-25T20:00:36;98898.00;;;8.82;76.46
49341;BME280;35209;51.050;13.678;2023-03-25T20:05:39;98860.00;;;8.51;79.13
49341;BME280;35209;51.050;13.678;2023-03-25T20:10:41;98855.03;;;8.66;73.92
49341;BME280;35209;51.050;13.678;2023-03-25T20:15:43;98873.22;;;8.89;72.47
49341;BME280;35209;51.050;13.678;2023-03-25T20:20:45;98876.25;;;8.80;76.04
49341;BME280;35209;51.050;13.678;2023-03-25T20:25:49;98875.66;;;8.53;80.22
49341;BME280;35209;51.050;13.678;2023-03-25T20:30:51;98881.34;;;8.42;80.91
49341;BME280;35209;51.050;13.678;2023-03-25T20:35:53;98880.69;;;8.35;80.21
49341;BME280;35209;51.050;13.678;2023-03-25T20:40:56;98886.50;;;8.22;80.59
49341;BME280;35209;51.050;13.678;2023-03-25T20:45:57;98858.31;;;8.28;79.41
49341;BME280;35209;51.050;13.678;2023-03-25T20:51:01;98845.78;;;8.15;80.41
49341;BME280;35209;51.050;13.678;2023-03-25T20:56:04;98842.09;;;8.19;81.74
49341;BME280;35209;51.050;13.678;2023-03-25T21:01:06;98848.72;;;8.07;83.22
49341;BME280;35209;51.050;13.678;2023-03-25T21:06:08;98850.47;;;8.06;83.85
49341;BME280;35209;51.050;13.678;2023-03-25T21:11:25;98847.97;;;8.03;83.81
49341;BME280;35209;51.050;13.678;2023-03-25T21:16:27;98843.34;;;8.10;83.27
49341;BME280;35209;51.050;13.678;2023-03-25T21:21:30;98849.97;;;8.19;82.94
49341;BME280;35209;51.050;13.678;2023-03-25T21:26:33;98851.53;;;8.23;82.31
49341;BME280;35209;51.050;13.678;2023-03-25T21:31:35;98853.50;;;8.18;83.11
49341;BME280;35209;51.050;13.678;2023-03-25T21:36:39;98852.84;;;8.13;82.60
49341;BME280;35209;51.050;13.678;2023-03-25T21:41:41;98855.69;;;8.28;81.65
49341;BME280;35209;51.050;13.678;2023-03-25T21:46:43;98846.66;;;8.37;81.26
49341;BME280;35209;51.050;13.678;2023-03-25T21:51:45;98855.03;;;8.66;78.15
49341;BME280;35209;51.050;13.678;2023-03-25T21:56:50;98852.28;;;8.69;77.34
49341;BME280;35209;51.050;13.678;2023-03-25T22:01:57;98850.31;;;8.94;73.46
49341;BME280;35209;51.050;13.678;2023-03-25T22:06:59;98859.78;;;8.97;73.08
49341;BME280;35209;51.050;13.678;2023-03-25T22:12:00;98865.34;;;8.89;73.93
49341;BME280;35209;51.050;13.678;2023-03-25T22:17:02;98850.31;;;8.74;75.37
49341;BME280;35209;51.050;13.678;2023-03-25T22:22:04;98863.97;;;8.80;74.55
49341;BME280;35209;51.050;13.678;2023-03-25T22:27:11;98859.53;;;8.62;75.29
49341;BME280;35209;51.050;13.678;2023-03-25T22:32:13;98857.25;;;8.75;75.11
49341;BME280;35209;51.050;13.678;2023-03-25T22:37:15;98844.63;;;8.64;76.12
49341;BME280;35209;51.050;13.678;2023-03-25T22:42:17;98846.19;;;8.68;74.62
49341;BME280;35209;51.050;13.678;2023-03-25T22:47:19;98852.28;;;8.69;74.85
49341;BME280;35209;51.050;13.678;2023-03-25T22:52:20;98866.34;;;8.66;74.56
49341;BME280;35209;51.050;13.678;2023-03-25T22:57:22;98852.31;;;8.67;74.55
49341;BME280;35209;51.050;13.678;2023-03-25T23:02:24;98853.22;;;8.68;74.91
49341;BME280;35209;51.050;13.678;2023-03-25T23:07:26;98860.25;;;8.66;76.55
49341;BME280;35209;51.050;13.678;2023-03-25T23:12:28;98855.94;;;8.44;81.19
49341;BME280;35209;51.050;13.678;2023-03-25T23:17:30;98852.59;;;8.41;82.12
49341;BME280;35209;51.050;13.678;2023-03-25T23:22:35;98861.34;;;8.40;81.99
49341;BME280;35209;51.050;13.678;2023-03-25T23:27:37;98864.50;;;8.26;84.61
49341;BME280;35209;51.050;13.678;2023-03-25T23:32:39;98847.50;;;8.16;87.62
49341;BME280;35209;51.050;13.678;2023-03-25T23:37:42;98860.59;;;8.16;88.69
49341;BME280;35209;51.050;13.678;2023-03-25T23:42:45;98863.69;;;8.03;90.65
49341;BME280;35209;51.050;13.678;2023-03-25T23:47:47;98866.22;;;8.05;87.47
49341;BME280;35209;51.050;13.678;2023-03-25T23:52:49;98866.03;;;8.09;85.57
49341;BME280;35209;51.050;13.678;2023-03-25T23:57:51;98867.06;;;8.05;84.13
